Time;durP1;ratioP1;P1;durP2;ratioP2;P2;SDS_P1;SDS_P2;PMS_P1;PMS_P2;Temp;Humidity;BMP_temperature;BMP_pressure;BME280_temperature;BME280_humidity;BME280_pressure;Samples;Min_cycle;Max_cycle;Signal;HPM_P1;HPM_P2
2021/11/02 00:00:53;;;;;;;14.82;10.02;;;;;;;;;;5101403;28;20019;-72
2021/11/02 00:03:19;;;;;;;14.85;9.35;;;;;;;;;;5094792;28;20023;-73
2021/11/02 00:05:45;;;;;;;13.15;9.40;;;;;;;;;;5094559;28;20027;-70
2021/11/02 00:08:11;;;;;;;13.55;9.52;;;;;;;;;;5094599;28;20028;-75
2021/11/02 00:10:37;;;;;;;14.88;9.45;;;;;;;;;;5094878;28;20043;-74
2021/11/02 00:13:04;;;;;;;12.93;8.40;;;;;;;;;;5094586;28;20048;-75
2021/11/02 00:15:32;;;;;;;12.88;8.40;;;;;;;;;;5094656;28;20106;-75
2021/11/02 00:18:03;;;;;;;13.60;9.07;;;;;;;;;;5095139;28;20028;-74
2021/11/02 00:20:29;;;;;;;13.55;8.90;;;;;;;;;;5094529;28;20091;-75
2021/11/02 00:22:56;;;;;;;13.50;8.88;;;;;;;;;;5094429;28;20028;-75
2021/11/02 00:25:23;;;;;;;12.80;8.88;;;;;;;;;;5094441;28;20020;-74
2021/11/02 00:27:49;;;;;;;14.18;9.48;;;;;;;;;;5094331;28;20106;-71
2021/11/02 00:30:16;;;;;;;15.25;9.98;;;;;;;;;;5094219;28;20047;-74
2021/11/02 00:32:43;;;;;;;13.15;8.38;;;;;;;;;;5076061;28;20085;-71
2021/11/02 00:35:11;;;;;;;12.80;8.80;;;;;;;;;;5094628;28;20020;-74
2021/11/02 00:37:37;;;;;;;11.60;8.35;;;;;;;;;;5075716;28;20028;-73
2021/11/02 00:40:06;;;;;;;11.80;8.00;;;;;;;;;;5093756;28;20016;-73
2021/11/02 00:42:39;;;;;;;11.35;7.95;;;;;;;;;;5094306;28;20024;-72
2021/11/02 00:45:09;;;;;;;11.82;8.75;;;;;;;;;;5093878;28;20506;-71
2021/11/02 00:47:35;;;;;;;13.68;8.45;;;;;;;;;;5075571;28;20024;-73
2021/11/02 00:50:02;;;;;;;13.48;7.97;;;;;;;;;;5094099;28;20035;-71
2021/11/02 00:52:29;;;;;;;12.50;8.27;;;;;;;;;;5076209;28;20157;-71
2021/11/02 00:54:56;;;;;;;13.05;8.35;;;;;;;;;;5093852;28;20624;-72
2021/11/02 00:57:23;;;;;;;12.52;8.43;;;;;;;;;;5093842;28;20042;-72
2021/11/02 00:59:49;;;;;;;14.35;8.38;;;;;;;;;;5093702;28;20020;-72
2021/11/02 01:02:18;;;;;;;11.82;8.80;;;;;;;;;;5107279;28;20103;-74
2021/11/02 01:04:44;;;;;;;11.98;8.20;;;;;;;;;;5114098;28;20027;-73
2021/11/02 01:07:10;;;;;;;13.15;8.57;;;;;;;;;;5095574;28;20110;-71
2021/11/02 01:09:36;;;;;;;11.70;8.52;;;;;;;;;;5113148;28;20019;-72
2021/11/02 01:12:03;;;;;;;11.90;8.77;;;;;;;;;;5113723;28;20032;-72
2021/11/02 01:14:29;;;;;;;13.18;8.20;;;;;;;;;;5095623;28;20020;-71
2021/11/02 01:16:55;;;;;;;13.10;8.45;;;;;;;;;;5113522;28;20126;-71
2021/11/02 01:19:21;;;;;;;10.68;7.57;;;;;;;;;;5095449;28;20061;-74
2021/11/02 01:21:47;;;;;;;10.73;7.32;;;;;;;;;;5113738;28;20026;-74
2021/11/02 01:24:13;;;;;;;11.32;8.02;;;;;;;;;;5113765;28;20452;-72
2021/11/02 01:26:39;;;;;;;11.40;8.18;;;;;;;;;;5112944;28;20024;-71
2021/11/02 01:29:05;;;;;;;12.55;8.13;;;;;;;;;;5113501;28;20240;-71
2021/11/02 01:31:32;;;;;;;12.43;8.65;;;;;;;;;;5113481;28;20475;-74
2021/11/02 01:33:58;;;;;;;12.50;8.95;;;;;;;;;;5095079;28;20114;-74
2021/11/02 01:36:24;;;;;;;13.88;9.00;;;;;;;;;;5113131;28;20035;-74
2021/11/02 01:38:50;;;;;;;12.75;8.93;;;;;;;;;;5094973;28;20020;-73
2021/11/02 01:41:18;;;;;;;12.70;8.75;;;;;;;;;;5113271;28;20075;-71
2021/11/02 01:43:45;;;;;;;13.35;8.70;;;;;;;;;;5112461;28;20056;-71
2021/11/02 01:46:25;;;;;;;11.55;8.45;;;;;;;;;;5113177;28;20027;-71
2021/11/02 01:48:55;;;;;;;12.10;8.43;;;;;;;;;;5094926;28;20019;-71
2021/11/02 01:51:22;;;;;;;12.13;8.45;;;;;;;;;;5112523;28;20040;-74
2021/11/02 01:53:48;;;;;;;10.35;7.93;;;;;;;;;;5112945;28;20015;-71
2021/11/02 01:56:17;;;;;;;12.95;8.60;;;;;;;;;;5094765;28;20494;-74
2021/11/02 01:58:46;;;;;;;13.27;8.90;;;;;;;;;;5094631;28;20387;-72
2021/11/02 02:01:14;;;;;;;13.32;8.50;;;;;;;;;;5090180;28;20073;-72
2021/11/02 02:04:00;;;;;;;12.10;7.72;;;;;;;;;;5074101;28;20020;-71
2021/11/02 02:06:38;;;;;;;14.00;9.23;;;;;;;;;;5091940;28;20028;-75
2021/11/02 02:09:18;;;;;;;13.43;8.27;;;;;;;;;;5106214;28;20028;-74
2021/11/02 02:11:48;;;;;;;11.82;8.13;;;;;;;;;;5112699;28;20028;-74
2021/11/02 02:14:14;;;;;;;11.77;8.15;;;;;;;;;;5112862;28;20020;-72
2021/11/02 02:16:41;;;;;;;13.50;8.98;;;;;;;;;;5112662;28;20047;-73
2021/11/02 02:19:26;;;;;;;11.35;8.15;;;;;;;;;;5111822;28;20088;-71
2021/11/02 02:21:52;;;;;;;14.32;9.25;;;;;;;;;;5112618;28;20034;-72
2021/11/02 02:24:27;;;;;;;11.85;8.20;;;;;;;;;;5112680;28;20020;-70
2021/11/02 02:27:12;;;;;;;12.23;8.65;;;;;;;;;;5094135;28;20028;-71
2021/11/02 02:29:40;;;;;;;12.25;8.55;;;;;;;;;;5112486;28;20035;-71
2021/11/02 02:32:10;;;;;;;13.05;9.02;;;;;;;;;;5094112;28;20035;-71
2021/11/02 02:34:36;;;;;;;12.65;8.35;;;;;;;;;;5111643;28;20055;-73
2021/11/02 02:37:04;;;;;;;13.15;8.63;;;;;;;;;;5112404;28;20107;-72
2021/11/02 02:39:30;;;;;;;12.52;8.43;;;;;;;;;;5096819;28;20016;-71
2021/11/02 02:41:57;;;;;;;12.55;8.18;;;;;;;;;;5073848;28;20470;-72
2021/11/02 02:44:24;;;;;;;12.27;8.48;;;;;;;;;;5092084;28;20387;-72
2021/11/02 02:46:51;;;;;;;12.68;8.77;;;;;;;;;;5091871;28;20024;-71
2021/11/02 02:49:17;;;;;;;13.90;8.90;;;;;;;;;;5073632;28;20028;-71
2021/11/02 02:51:44;;;;;;;13.25;8.65;;;;;;;;;;5092301;28;20122;-71
2021/11/02 02:54:11;;;;;;;13.00;8.25;;;;;;;;;;5091665;28;20062;-72
2021/11/02 02:56:41;;;;;;;14.18;8.70;;;;;;;;;;5092062;28;20028;-70
2021/11/02 02:59:08;;;;;;;11.93;8.05;;;;;;;;;;5074109;28;20520;-74
2021/11/02 03:01:34;;;;;;;11.32;7.78;;;;;;;;;;5099721;28;20047;-72
2021/11/02 03:04:05;;;;;;;15.18;9.20;;;;;;;;;;5114678;28;20090;-72
2021/11/02 03:06:33;;;;;;;13.02;8.25;;;;;;;;;;5116154;28;20028;-73
2021/11/02 03:09:00;;;;;;;12.50;8.45;;;;;;;;;;5097121;28;20018;-73
2021/11/02 03:11:28;;;;;;;13.55;8.73;;;;;;;;;;5116232;28;20505;-75
2021/11/02 03:13:57;;;;;;;12.60;8.68;;;;;;;;;;5116382;28;20028;-71
2021/11/02 03:16:43;;;;;;;12.45;9.13;;;;;;;;;;5116198;28;20470;-73
2021/11/02 05:14:19;;;;;;;16.73;10.45;;;;;;;;;;5059410;28;20047;-67
2021/11/02 06:00:04;;;;;;;15.65;9.68;;;;;;;;;;5093101;28;20032;-67
2021/11/02 06:08:22;;;;;;;14.52;9.95;;;;;;;;;;5092858;28;20035;-66
2021/11/02 06:27:55;;;;;;;18.13;9.97;;;;;;;;;;5092698;28;20043;-66
2021/11/02 06:30:38;;;;;;;13.50;9.20;;;;;;;;;;5092028;28;20294;-66
2021/11/02 06:33:14;;;;;;;15.10;9.27;;;;;;;;;;5092304;28;20024;-66
2021/11/02 06:36:37;;;;;;;16.48;10.25;;;;;;;;;;5091956;28;20383;-66
2021/11/02 06:47:47;;;;;;;16.38;9.55;;;;;;;;;;5091977;28;20024;-67
2021/11/02 07:19:41;;;;;;;13.85;9.80;;;;;;;;;;5091847;28;20024;-67
2021/11/02 08:48:28;;;;;;;24.05;10.68;;;;;;;;;;5114021;28;20118;-68
2021/11/02 08:50:55;;;;;;;19.23;10.15;;;;;;;;;;5114116;28;20019;-68
2021/11/02 08:53:22;;;;;;;26.23;11.65;;;;;;;;;;5112107;28;20136;-67
2021/11/02 08:55:49;;;;;;;20.52;9.60;;;;;;;;;;5093704;28;20039;-67
2021/11/02 08:58:17;;;;;;;17.67;9.27;;;;;;;;;;5093585;28;20133;-68
2021/11/02 09:00:43;;;;;;;23.92;9.93;;;;;;;;;;5093414;28;20024;-69
2021/11/02 09:03:15;;;;;;;22.35;10.05;;;;;;;;;;5078092;28;20016;-70
2021/11/02 09:05:42;;;;;;;22.73;10.80;;;;;;;;;;5093507;28;20032;-71
2021/11/02 09:08:10;;;;;;;17.80;9.75;;;;;;;;;;5075251;28;20111;-71
2021/11/02 09:10:39;;;;;;;19.00;10.07;;;;;;;;;;5093251;28;20023;-70
2021/11/02 09:13:05;;;;;;;16.60;9.75;;;;;;;;;;5093639;28;20054;-72
2021/11/02 09:15:32;;;;;;;17.65;10.13;;;;;;;;;;5075463;28;20025;-71
2021/11/02 09:18:02;;;;;;;21.48;10.68;;;;;;;;;;5078057;28;20471;-71
2021/11/02 09:20:28;;;;;;;21.00;10.00;;;;;;;;;;5113538;28;20038;-70
2021/11/02 09:22:55;;;;;;;15.90;10.07;;;;;;;;;;5113387;28;20020;-71
2021/11/02 09:25:21;;;;;;;15.52;10.55;;;;;;;;;;5095013;28;20058;-71
2021/11/02 09:27:48;;;;;;;14.88;9.65;;;;;;;;;;5095558;28;20454;-71
2021/11/02 09:30:15;;;;;;;19.08;10.80;;;;;;;;;;5094731;28;20035;-70
2021/11/02 09:32:43;;;;;;;21.00;10.52;;;;;;;;;;5113325;28;20035;-70
2021/11/02 09:35:09;;;;;;;25.48;11.15;;;;;;;;;;5097516;28;20020;-71
2021/11/02 09:37:38;;;;;;;19.30;10.00;;;;;;;;;;5092597;28;20075;-70
2021/11/02 09:40:10;;;;;;;15.93;9.65;;;;;;;;;;5074494;28;20052;-71
2021/11/02 09:42:36;;;;;;;20.57;10.17;;;;;;;;;;5077234;28;20024;-71
2021/11/02 09:45:25;;;;;;;18.25;11.10;;;;;;;;;;5112964;28;20106;-71
2021/11/02 09:47:52;;;;;;;14.75;9.77;;;;;;;;;;5094559;28;20020;-70
2021/11/02 09:50:36;;;;;;;16.70;10.50;;;;;;;;;;5113020;28;20034;-71
2021/11/02 09:53:22;;;;;;;17.42;9.60;;;;;;;;;;5097134;28;20050;-71
2021/11/02 09:55:48;;;;;;;17.10;9.88;;;;;;;;;;5074499;28;20031;-71
2021/11/02 09:58:17;;;;;;;16.92;11.38;;;;;;;;;;5092650;28;20069;-69
2021/11/02 10:00:54;;;;;;;19.02;9.77;;;;;;;;;;5092634;28;20016;-68
2021/11/02 10:03:44;;;;;;;17.77;11.05;;;;;;;;;;5074333;28;20414;-70
2021/11/02 10:06:14;;;;;;;16.38;10.63;;;;;;;;;;5093191;28;20078;-70
2021/11/02 10:08:44;;;;;;;17.80;10.05;;;;;;;;;;5092792;28;20055;-70
2021/11/02 10:11:19;;;;;;;15.15;9.02;;;;;;;;;;5105439;28;20038;-70
2021/11/02 10:13:47;;;;;;;17.35;9.95;;;;;;;;;;5112120;28;20023;-71
2021/11/02 10:16:38;;;;;;;14.15;8.80;;;;;;;;;;5109093;28;20034;-70
2021/11/02 10:19:07;;;;;;;14.00;9.70;;;;;;;;;;5104735;28;20036;-70
2021/11/02 10:21:47;;;;;;;15.68;9.32;;;;;;;;;;5112595;28;20072;-70
2021/11/02 10:24:32;;;;;;;14.15;9.43;;;;;;;;;;5094438;28;20383;-70
2021/11/02 10:27:17;;;;;;;14.30;9.60;;;;;;;;;;5081745;28;20027;-71
2021/11/02 10:29:54;;;;;;;16.13;9.13;;;;;;;;;;5073382;28;20530;-70
2021/11/02 10:32:28;;;;;;;15.52;9.82;;;;;;;;;;5074792;28;20051;-71
2021/11/02 10:35:13;;;;;;;15.57;9.93;;;;;;;;;;5092209;28;20019;-69
2021/11/02 10:37:42;;;;;;;15.38;9.82;;;;;;;;;;5073612;28;20120;-70
2021/11/02 10:40:14;;;;;;;15.52;9.95;;;;;;;;;;5092239;28;20016;-70
2021/11/02 10:42:54;;;;;;;17.13;10.45;;;;;;;;;;5074363;28;20024;-71
2021/11/02 10:45:24;;;;;;;14.45;9.95;;;;;;;;;;5092322;28;20488;-70
2021/11/02 10:48:04;;;;;;;16.10;10.30;;;;;;;;;;5092095;28;20060;-70
2021/11/02 10:50:31;;;;;;;18.30;10.10;;;;;;;;;;5091792;28;20016;-70
2021/11/02 10:52:59;;;;;;;17.33;11.15;;;;;;;;;;5092098;28;20090;-71
2021/11/02 10:55:25;;;;;;;15.00;9.90;;;;;;;;;;5092000;28;20451;-70
2021/11/02 10:57:51;;;;;;;18.00;10.60;;;;;;;;;;5073822;28;20494;-70
2021/11/02 11:00:19;;;;;;;17.35;10.30;;;;;;;;;;5074091;28;20157;-70
2021/11/02 11:02:46;;;;;;;16.20;9.75;;;;;;;;;;5092005;28;20052;-70
2021/11/02 11:05:12;;;;;;;17.52;10.13;;;;;;;;;;5092159;28;20091;-70
2021/11/02 11:07:42;;;;;;;14.45;10.55;;;;;;;;;;5091828;28;20045;-70
2021/11/02 11:10:10;;;;;;;14.13;9.85;;;;;;;;;;5073505;28;20024;-69
2021/11/02 11:12:36;;;;;;;15.10;10.52;;;;;;;;;;5091955;28;20043;-71
2021/11/02 11:15:04;;;;;;;17.75;10.20;;;;;;;;;;5091821;28;20020;-71
2021/11/02 11:17:32;;;;;;;14.68;9.98;;;;;;;;;;5073799;28;20027;-70
2021/11/02 11:20:06;;;;;;;15.05;10.63;;;;;;;;;;5073836;28;20380;-71
2021/11/02 11:22:37;;;;;;;15.98;10.50;;;;;;;;;;5091970;28;20032;-70
2021/11/02 11:25:05;;;;;;;16.48;10.73;;;;;;;;;;5076266;28;20114;-71
2021/11/02 11:27:34;;;;;;;15.45;9.85;;;;;;;;;;5095674;28;20020;-72
2021/11/02 11:30:05;;;;;;;15.15;9.75;;;;;;;;;;5077401;28;20155;-69
2021/11/02 11:32:34;;;;;;;16.35;9.95;;;;;;;;;;5077154;28;20101;-72
2021/11/02 11:35:02;;;;;;;15.80;9.85;;;;;;;;;;5095679;28;20030;-70
2021/11/02 11:37:29;;;;;;;14.75;10.02;;;;;;;;;;5095625;28;20546;-70
2021/11/02 11:40:05;;;;;;;15.57;9.57;;;;;;;;;;5095673;28;20371;-72
2021/11/02 11:42:31;;;;;;;17.05;10.52;;;;;;;;;;5095293;28;20470;-71
2021/11/02 11:45:02;;;;;;;16.73;10.60;;;;;;;;;;5100364;28;20055;-70
2021/11/02 11:47:28;;;;;;;17.27;10.73;;;;;;;;;;5115956;28;20050;-70
2021/11/02 11:49:55;;;;;;;16.35;10.93;;;;;;;;;;5115794;28;20020;-70
2021/11/02 11:52:22;;;;;;;16.15;10.93;;;;;;;;;;5115609;28;20119;-70
2021/11/02 11:54:49;;;;;;;16.13;10.82;;;;;;;;;;5115361;28;20388;-70
2021/11/02 11:57:29;;;;;;;17.70;10.80;;;;;;;;;;5115481;28;20030;-70
2021/11/02 12:00:10;;;;;;;17.35;10.63;;;;;;;;;;5115565;28;20012;-70
2021/11/02 12:02:42;;;;;;;18.55;11.73;;;;;;;;;;5112102;28;20020;-69
2021/11/02 12:05:18;;;;;;;16.40;10.73;;;;;;;;;;5076771;28;20024;-70
2021/11/02 12:08:07;;;;;;;14.60;9.55;;;;;;;;;;5095133;28;20271;-70
2021/11/02 12:10:33;;;;;;;16.42;10.48;;;;;;;;;;5094993;28;20020;-71
2021/11/02 12:13:03;;;;;;;14.65;9.57;;;;;;;;;;5094820;28;20482;-70
2021/11/02 12:15:37;;;;;;;13.75;8.68;;;;;;;;;;5094643;28;20027;-71
2021/11/02 12:18:07;;;;;;;13.40;9.52;;;;;;;;;;5094395;28;20031;-71
2021/11/02 12:20:36;;;;;;;13.45;9.15;;;;;;;;;;5094653;28;20146;-71
2021/11/02 12:23:13;;;;;;;15.15;9.30;;;;;;;;;;5093361;28;20062;-69
2021/11/02 12:25:42;;;;;;;14.98;9.05;;;;;;;;;;5094816;28;20023;-71
2021/11/02 12:28:22;;;;;;;13.95;9.85;;;;;;;;;;5094507;28;20028;-70
2021/11/02 12:30:48;;;;;;;13.93;9.18;;;;;;;;;;5094489;28;20473;-70
2021/11/02 12:33:15;;;;;;;15.02;9.35;;;;;;;;;;5094591;28;20475;-71
2021/11/02 12:35:46;;;;;;;15.65;9.50;;;;;;;;;;5093800;28;20387;-70
2021/11/02 12:38:12;;;;;;;14.82;9.45;;;;;;;;;;5093005;28;20035;-70
2021/11/02 12:40:40;;;;;;;12.65;8.85;;;;;;;;;;5094317;28;20020;-71
2021/11/02 12:43:20;;;;;;;13.57;8.85;;;;;;;;;;5094362;28;20024;-70
2021/11/02 12:45:46;;;;;;;11.90;8.00;;;;;;;;;;5094261;28;20043;-71
2021/11/02 12:48:14;;;;;;;11.45;8.32;;;;;;;;;;5094288;28;20619;-72
2021/11/02 12:50:40;;;;;;;12.40;8.25;;;;;;;;;;5093998;28;20111;-72
2021/11/02 12:53:07;;;;;;;12.15;8.20;;;;;;;;;;5093844;28;20539;-72
2021/11/02 12:55:34;;;;;;;12.20;7.40;;;;;;;;;;5093886;28;20024;-69
2021/11/02 12:58:13;;;;;;;12.15;8.13;;;;;;;;;;5092564;28;20055;-71
2021/11/02 13:00:42;;;;;;;14.60;8.27;;;;;;;;;;5094009;28;20116;-70
2021/11/02 13:03:10;;;;;;;12.15;8.10;;;;;;;;;;5094039;28;20028;-71
2021/11/02 13:05:37;;;;;;;10.45;7.50;;;;;;;;;;5090369;28;20074;-71
2021/11/02 13:08:08;;;;;;;11.98;8.38;;;;;;;;;;5096340;28;20444;-69
2021/11/02 13:10:34;;;;;;;11.80;7.85;;;;;;;;;;5095809;28;20053;-72
2021/11/02 13:13:08;;;;;;;13.80;7.72;;;;;;;;;;5095807;28;20023;-71
2021/11/02 13:15:52;;;;;;;9.02;6.70;;;;;;;;;;5095714;28;20020;-71
2021/11/02 13:18:31;;;;;;;11.23;8.05;;;;;;;;;;5095670;28;20078;-69
2021/11/02 13:21:00;;;;;;;9.18;6.40;;;;;;;;;;5101136;28;20028;-70
2021/11/02 13:23:39;;;;;;;11.43;7.30;;;;;;;;;;5114613;28;20020;-70
2021/11/02 13:26:19;;;;;;;12.32;6.60;;;;;;;;;;5095819;28;20027;-70
2021/11/02 13:28:46;;;;;;;10.52;7.00;;;;;;;;;;5113857;28;20034;-70
2021/11/02 13:31:29;;;;;;;11.73;6.82;;;;;;;;;;5095234;28;20036;-69
2021/11/02 13:33:59;;;;;;;10.50;6.75;;;;;;;;;;5110934;27;20027;-69
2021/11/02 13:36:25;;;;;;;9.25;6.50;;;;;;;;;;5101809;28;20019;-69
2021/11/02 13:38:57;;;;;;;12.73;6.90;;;;;;;;;;5112500;28;20031;-70
2021/11/02 13:41:28;;;;;;;12.32;7.00;;;;;;;;;;5097779;28;20012;-68
2021/11/02 13:44:05;;;;;;;10.65;6.25;;;;;;;;;;5092192;28;20517;-68
2021/11/02 13:46:43;;;;;;;10.18;6.00;;;;;;;;;;5092490;28;20034;-67
2021/11/02 13:49:09;;;;;;;8.55;5.68;;;;;;;;;;5091969;28;20016;-68
2021/11/02 13:51:36;;;;;;;9.38;6.03;;;;;;;;;;5092792;28;20032;-68
2021/11/02 13:54:03;;;;;;;10.32;6.32;;;;;;;;;;5106854;28;20023;-70
2021/11/02 13:56:31;;;;;;;10.10;5.60;;;;;;;;;;5095301;28;20160;-71
2021/11/02 13:58:58;;;;;;;10.45;5.57;;;;;;;;;;5094960;28;20019;-71
2021/11/02 14:01:24;;;;;;;9.50;6.20;;;;;;;;;;5113107;28;20024;-71
2021/11/02 14:03:59;;;;;;;7.93;5.40;;;;;;;;;;5113205;28;20096;-71
2021/11/02 14:06:25;;;;;;;8.00;5.50;;;;;;;;;;5112890;28;20022;-70
2021/11/02 14:08:52;;;;;;;7.35;5.15;;;;;;;;;;5094901;28;20398;-70
2021/11/02 14:11:22;;;;;;;8.18;4.70;;;;;;;;;;5113083;28;20496;-71
2021/11/02 14:13:49;;;;;;;8.07;5.28;;;;;;;;;;5094788;28;20424;-71
2021/11/02 14:16:16;;;;;;;8.98;4.97;;;;;;;;;;5094597;28;20055;-72
2021/11/02 14:18:42;;;;;;;8.55;5.22;;;;;;;;;;5113040;28;20020;-72
2021/11/02 14:21:10;;;;;;;7.35;4.88;;;;;;;;;;5112694;28;20012;-72
2021/11/02 14:23:39;;;;;;;7.15;4.45;;;;;;;;;;5112930;28;20035;-71
2021/11/02 14:26:25;;;;;;;7.28;4.32;;;;;;;;;;5094506;28;20492;-75
2021/11/02 14:28:58;;;;;;;6.82;4.30;;;;;;;;;;5094522;28;20059;-72
2021/11/02 14:31:40;;;;;;;10.90;4.75;;;;;;;;;;5112637;28;20048;-71
2021/11/02 14:34:07;;;;;;;5.95;4.03;;;;;;;;;;5112776;28;20028;-71
2021/11/02 14:36:34;;;;;;;8.27;4.30;;;;;;;;;;5112505;28;20023;-71
2021/11/02 14:39:00;;;;;;;7.05;4.22;;;;;;;;;;5112234;28;20028;-70
2021/11/02 14:41:32;;;;;;;6.78;4.10;;;;;;;;;;5112552;28;20028;-70
2021/11/02 14:44:17;;;;;;;6.38;4.00;;;;;;;;;;5112557;28;20022;-71
2021/11/02 14:46:47;;;;;;;5.60;3.80;;;;;;;;;;5112663;28;20055;-70
2021/11/02 14:49:36;;;;;;;6.35;3.92;;;;;;;;;;5112481;28;20441;-71
2021/11/02 14:52:06;;;;;;;6.43;4.05;;;;;;;;;;5102525;28;20071;-73
2021/11/02 14:54:36;;;;;;;7.95;3.47;;;;;;;;;;5112434;28;20077;-71
2021/11/02 14:57:34;;;;;;;6.85;4.07;;;;;;;;;;5112332;28;20402;-72
2021/11/02 15:00:02;;;;;;;8.02;4.10;;;;;;;;;;5115002;28;20018;-70
2021/11/02 15:02:31;;;;;;;6.35;3.80;;;;;;;;;;5116810;28;20069;-69
2021/11/02 15:05:03;;;;;;;5.72;3.63;;;;;;;;;;5116679;28;20023;-71
2021/11/02 15:07:30;;;;;;;6.07;3.97;;;;;;;;;;5116419;28;20048;-71
2021/11/02 15:09:56;;;;;;;6.03;3.35;;;;;;;;;;5098183;28;20045;-70
2021/11/02 15:12:23;;;;;;;5.78;3.80;;;;;;;;;;5098106;28;20036;-70
2021/11/02 15:14:49;;;;;;;5.22;3.40;;;;;;;;;;5116425;28;20077;-70
2021/11/02 15:17:19;;;;;;;6.72;3.67;;;;;;;;;;5116466;28;20024;-70
2021/11/02 15:19:46;;;;;;;5.38;3.72;;;;;;;;;;5116519;28;20022;-70
2021/11/02 15:22:16;;;;;;;6.93;4.35;;;;;;;;;;5116302;28;20063;-69
2021/11/02 15:24:47;;;;;;;5.97;3.80;;;;;;;;;;5098069;28;20019;-70
2021/11/02 15:27:23;;;;;;;5.60;3.78;;;;;;;;;;5097873;28;20414;-70
2021/11/02 15:29:54;;;;;;;5.07;3.25;;;;;;;;;;5097707;28;20040;-71
2021/11/02 15:32:24;;;;;;;6.57;3.92;;;;;;;;;;5115885;28;20484;-73
2021/11/02 15:34:51;;;;;;;6.25;4.10;;;;;;;;;;5115261;28;20129;-70
2021/11/02 15:37:29;;;;;;;6.72;4.10;;;;;;;;;;5096329;28;20019;-71
2021/11/02 15:40:18;;;;;;;6.47;4.32;;;;;;;;;;5115958;28;20020;-71
2021/11/02 15:42:48;;;;;;;6.57;4.25;;;;;;;;;;5107881;28;20039;-71
2021/11/02 15:45:21;;;;;;;7.38;4.13;;;;;;;;;;5115928;28;20585;-69
2021/11/02 15:47:49;;;;;;;6.70;4.10;;;;;;;;;;5116006;28;20115;-70
2021/11/02 15:50:19;;;;;;;7.10;4.25;;;;;;;;;;5115946;28;20022;-70
2021/11/02 15:52:46;;;;;;;6.80;4.63;;;;;;;;;;5097442;28;20073;-70
2021/11/02 15:55:14;;;;;;;6.53;4.15;;;;;;;;;;5097470;28;20023;-70
2021/11/02 15:57:42;;;;;;;6.90;4.50;;;;;;;;;;5097237;28;20081;-70
2021/11/02 16:00:09;;;;;;;6.18;4.07;;;;;;;;;;5115688;28;20019;-69
2021/11/02 16:02:39;;;;;;;8.68;4.72;;;;;;;;;;5097149;28;20034;-69
2021/11/02 16:05:06;;;;;;;9.20;4.20;;;;;;;;;;5097132;28;20028;-69
2021/11/02 16:07:33;;;;;;;6.70;4.50;;;;;;;;;;5115230;28;20027;-71
2021/11/02 16:09:59;;;;;;;11.27;5.10;;;;;;;;;;5115032;28;20081;-68
2021/11/02 16:12:32;;;;;;;9.15;4.82;;;;;;;;;;5114551;28;20038;-69
2021/11/02 16:15:08;;;;;;;7.03;4.63;;;;;;;;;;5115219;28;20012;-70
2021/11/02 16:17:45;;;;;;;10.43;4.60;;;;;;;;;;5115348;28;20416;-69
2021/11/02 16:20:28;;;;;;;7.10;4.72;;;;;;;;;;5096927;28;20042;-68
2021/11/02 16:22:54;;;;;;;;;;;;;;;;;;5115644;28;20055;-69
2021/11/02 16:25:20;;;;;;;6.40;4.20;;;;;;;;;;5115059;28;19904;-68
2021/11/02 16:27:59;;;;;;;7.00;4.43;;;;;;;;;;5114918;28;20020;-68
2021/11/02 16:30:28;;;;;;;9.20;4.70;;;;;;;;;;5114792;28;20048;-68
2021/11/02 16:32:55;;;;;;;7.93;4.60;;;;;;;;;;5114867;28;20479;-68
2021/11/02 16:35:57;;;;;;;5.65;4.15;;;;;;;;;;5114748;28;20129;-68
2021/11/02 16:38:29;;;;;;;6.13;4.25;;;;;;;;;;5034938;28;20024;-70
2021/11/02 16:40:56;;;;;;;7.90;4.55;;;;;;;;;;5104825;28;20038;-69
2021/11/02 16:43:27;;;;;;;6.28;4.40;;;;;;;;;;5096375;28;20034;-70
2021/11/02 16:45:53;;;;;;;6.38;4.82;;;;;;;;;;5114787;28;20027;-69
2021/11/02 16:48:19;;;;;;;7.72;4.82;;;;;;;;;;5114711;28;20024;-69
2021/11/02 16:50:52;;;;;;;7.38;4.63;;;;;;;;;;5096356;28;20386;-69
2021/11/02 16:53:18;;;;;;;;;;;;;;;;;;5096713;28;20460;-70
2021/11/02 16:55:45;;;;;;;8.20;5.60;;;;;;;;;;5114552;28;20386;-70
2021/11/02 16:58:21;;;;;;;8.18;5.45;;;;;;;;;;5114616;28;20077;-70
2021/11/02 17:00:48;;;;;;;6.80;4.70;;;;;;;;;;5114587;28;20035;-69
2021/11/02 17:03:15;;;;;;;9.18;4.80;;;;;;;;;;5114312;28;20031;-71
2021/11/02 17:05:42;;;;;;;6.70;4.60;;;;;;;;;;5114485;28;20022;-70
2021/11/02 17:08:10;;;;;;;7.47;5.30;;;;;;;;;;5114350;28;20051;-70
2021/11/02 17:10:40;;;;;;;7.93;4.63;;;;;;;;;;5114351;28;20020;-69
2021/11/02 17:13:15;;;;;;;9.02;5.47;;;;;;;;;;5114077;28;20132;-70
2021/11/02 17:15:44;;;;;;;7.60;5.35;;;;;;;;;;5113991;28;20433;-69
2021/11/02 17:18:15;;;;;;;8.07;5.88;;;;;;;;;;5095775;28;20019;-74
2021/11/02 17:20:43;;;;;;;7.68;5.30;;;;;;;;;;5114221;28;20012;-70
2021/11/02 17:23:10;;;;;;;8.25;5.85;;;;;;;;;;5113813;28;20049;-70
2021/11/02 17:25:36;;;;;;;8.75;6.28;;;;;;;;;;5095624;28;20691;-70
2021/11/02 17:28:03;;;;;;;10.07;6.53;;;;;;;;;;5113662;28;20027;-69
2021/11/02 17:30:32;;;;;;;7.78;5.90;;;;;;;;;;5113702;28;20055;-69
2021/11/02 17:32:58;;;;;;;11.27;6.90;;;;;;;;;;5095272;28;20062;-70
2021/11/02 17:35:24;;;;;;;9.32;6.72;;;;;;;;;;5113593;28;20024;-70
2021/11/02 17:37:51;;;;;;;9.40;6.13;;;;;;;;;;5103588;28;20024;-72
2021/11/02 17:40:18;;;;;;;12.70;6.72;;;;;;;;;;5093539;28;20012;-70
2021/11/02 17:42:49;;;;;;;8.38;6.13;;;;;;;;;;5093319;28;20502;-71
2021/11/02 17:45:15;;;;;;;9.43;6.50;;;;;;;;;;5093297;28;20479;-72
2021/11/02 17:47:45;;;;;;;9.38;6.25;;;;;;;;;;5103165;28;20046;-72
2021/11/02 17:50:12;;;;;;;9.02;6.65;;;;;;;;;;5092705;28;20032;-75
2021/11/02 17:52:38;;;;;;;10.13;6.32;;;;;;;;;;5083223;28;20066;-75
2021/11/02 17:55:06;;;;;;;11.57;6.38;;;;;;;;;;5094769;28;20020;-74
2021/11/02 17:57:32;;;;;;;8.20;6.07;;;;;;;;;;5113186;28;20016;-74
2021/11/02 17:59:59;;;;;;;9.07;6.15;;;;;;;;;;5094890;28;20023;-73
2021/11/02 18:02:25;;;;;;;8.88;6.75;;;;;;;;;;5094743;28;20023;-75
2021/11/02 18:04:52;;;;;;;9.40;5.45;;;;;;;;;;5102570;28;20050;-75
2021/11/02 18:07:18;;;;;;;8.15;5.53;;;;;;;;;;5074266;28;20024;-74
2021/11/02 18:09:45;;;;;;;8.60;6.18;;;;;;;;;;5093048;28;20009;-75
2021/11/02 18:12:11;;;;;;;8.45;5.25;;;;;;;;;;5074408;28;20651;-75
2021/11/02 18:14:37;;;;;;;8.50;5.45;;;;;;;;;;5092600;28;20077;-75
2021/11/02 18:17:04;;;;;;;8.10;5.30;;;;;;;;;;5092341;28;20085;-75
2021/11/02 18:19:30;;;;;;;6.82;4.47;;;;;;;;;;5092767;28;20069;-75
2021/11/02 18:21:58;;;;;;;7.47;5.15;;;;;;;;;;5092377;28;20032;-71
2021/11/02 18:24:25;;;;;;;6.53;4.28;;;;;;;;;;5092405;28;20024;-70
2021/11/02 18:26:51;;;;;;;6.30;4.07;;;;;;;;;;5092876;28;20032;-70
2021/11/02 18:29:17;;;;;;;6.50;4.50;;;;;;;;;;5092067;28;20052;-70
2021/11/02 18:31:43;;;;;;;5.95;4.13;;;;;;;;;;5092092;28;20071;-69
2021/11/02 18:34:09;;;;;;;5.97;4.03;;;;;;;;;;5091263;28;20056;-70
2021/11/02 18:36:36;;;;;;;5.68;4.00;;;;;;;;;;5073910;28;20028;-70
2021/11/02 18:39:02;;;;;;;6.57;4.15;;;;;;;;;;5091891;28;20028;-70
2021/11/02 18:41:28;;;;;;;5.95;4.05;;;;;;;;;;5091885;28;20540;-70
2021/11/02 18:43:56;;;;;;;8.52;4.47;;;;;;;;;;5092642;28;20032;-69
2021/11/02 18:46:22;;;;;;;5.55;3.78;;;;;;;;;;5091956;28;20031;-70
2021/11/02 18:48:49;;;;;;;6.68;3.97;;;;;;;;;;5073843;28;20020;-75
2021/11/02 18:51:15;;;;;;;5.85;3.40;;;;;;;;;;5092018;28;20028;-75
2021/11/02 18:53:41;;;;;;;6.55;3.90;;;;;;;;;;5073812;28;20487;-75
2021/11/02 18:56:08;;;;;;;6.03;3.78;;;;;;;;;;5091789;28;20020;-75
2021/11/02 18:58:35;;;;;;;7.10;3.70;;;;;;;;;;5091920;28;20379;-75
2021/11/02 19:01:01;;;;;;;4.63;2.88;;;;;;;;;;5092359;28;20028;-75
2021/11/02 19:03:27;;;;;;;4.82;3.13;;;;;;;;;;5091852;28;20017;-75
2021/11/02 19:05:53;;;;;;;5.32;3.33;;;;;;;;;;5091615;28;20095;-75
2021/11/02 19:08:20;;;;;;;4.68;2.92;;;;;;;;;;5091677;28;20389;-75
2021/11/02 19:10:47;;;;;;;5.20;3.00;;;;;;;;;;5091901;28;20012;-74
2021/11/02 19:13:14;;;;;;;4.53;2.47;;;;;;;;;;5073580;28;20034;-75
2021/11/02 19:15:40;;;;;;;4.50;2.58;;;;;;;;;;5091928;28;20020;-75
2021/11/02 19:18:07;;;;;;;5.03;2.70;;;;;;;;;;5074155;28;20414;-75
2021/11/02 19:20:33;;;;;;;4.82;2.63;;;;;;;;;;5091733;28;20024;-74
2021/11/02 19:22:59;;;;;;;3.47;2.10;;;;;;;;;;5091348;28;20116;-75
2021/11/02 19:25:25;;;;;;;4.03;2.13;;;;;;;;;;5091466;28;20069;-75
2021/11/02 19:27:51;;;;;;;6.05;2.40;;;;;;;;;;5073318;28;20020;-72
2021/11/02 19:30:17;;;;;;;4.20;2.45;;;;;;;;;;5091420;28;20406;-72
2021/11/02 19:32:43;;;;;;;3.90;2.08;;;;;;;;;;5073282;28;20032;-72
2021/11/02 19:35:10;;;;;;;3.88;2.10;;;;;;;;;;5092099;28;20042;-75
2021/11/02 19:37:36;;;;;;;4.30;2.20;;;;;;;;;;5091346;28;20493;-74
2021/11/02 19:40:03;;;;;;;4.88;2.65;;;;;;;;;;5091415;28;20028;-74
2021/11/02 19:42:29;;;;;;;2.85;1.63;;;;;;;;;;5088857;28;20221;-69
2021/11/02 19:44:55;;;;;;;4.00;1.98;;;;;;;;;;5091878;28;20024;-70
2021/11/02 19:47:21;;;;;;;3.47;1.70;;;;;;;;;;5076962;28;20542;-71
2021/11/02 19:49:48;;;;;;;3.50;2.10;;;;;;;;;;5095194;28;20028;-70
2021/11/02 19:52:14;;;;;;;3.80;1.77;;;;;;;;;;5095395;28;20068;-74
2021/11/02 19:54:40;;;;;;;3.83;1.80;;;;;;;;;;5095214;28;20024;-74